• Join FlightAware (Why Join?)
  • Login
  • US Flag 
08:14AM EST


 

Airport Tracker/Info


-or-


 

Live Flight TrackerFlight Track Log ✈ N21921 ✈ 10-Jan-2014 ✈ KCDW - KAKR

Flight Track Log - Related Links

Times and Time Zones

All times are in EST time to prevent confusion due to time zone crossing. See the N21921 flight status page for this flight to view local times or setup timezone preferences in your user account.

Time Position Orientation Groundspeed Altitude Reporting Facility
EST Latitude Longitude Course Direction KTS MPH feet Rate Location/Type
06:24AM 40.9342 -75.1053 272° West 210 242 6,600  Level New York Center
06:25AM 40.9358 -75.1686 272° West 189 217 6,600  Level New York Center
06:26AM 40.9381 -75.2236 273° West 172 198 6,600  Level New York Center
06:27AM 40.9397 -75.2869 272° West 172 198 6,600  Level New York Center
06:28AM 40.9436 -75.3531 274° West 172 198 6,600  Level New York Center
06:29AM 40.9475 -75.4139 275° West 172 198 6,600  Level New York Center
06:30AM 40.9492 -75.4772 272° West 177 204 6,600  Level New York Center
06:31AM 40.9528 -75.5378 275° West 177 204 6,600  Level New York Center
06:32AM 40.9525 -75.5983 270° West 177 204 6,600  Level New York Center
06:33AM 40.9544 -75.6561 273° West 177 204 6,600  Level New York Center
06:34AM 40.9578 -75.7222 274° West 177 204 6,600  Level New York Center
06:35AM 40.9594 -75.7828 272° West 177 204 6,600  Level New York Center
06:36AM 40.9628 -75.8519 274° West 170 196 6,600  Level New York Center
06:37AM 40.9647 -75.9014 273° West 170 196 6,600 -60 Level New York Center
06:38AM 40.9678 -75.9786 273° West 175 201 6,500 -60 Descending New York Center
06:39AM 40.9692 -76.0392 272° West 169 194 6,500  Level New York Center
06:40AM 40.9728 -76.0972 275° West 163 188 6,500  Level New York Center
06:41AM 40.9764 -76.1553 275° West 169 194 6,500  Level New York Center
06:42AM 40.9758 -76.2156 269° West 169 194 6,500  Level New York Center
06:43AM 40.9775 -76.2653 273° West 163 188 6,500  Level New York Center
06:44AM 40.9789 -76.3258 272° West 163 188 6,600  Climbing New York Center
06:45AM 40.9822 -76.3919 274° West 163 188 6,600  Level New York Center
06:46AM 40.9856 -76.4528 274° West 163 188 6,600  Level New York Center
06:47AM 40.9847 -76.5106 269° West 158 182 6,600  Level New York Center
06:48AM 40.9861 -76.5656 272° West 163 188 6,600  Level New York Center
06:49AM 40.9892 -76.6319 274° West 163 188 6,600  Level New York Center
06:50AM 40.9906 -76.6897 272° West 168 193 6,600  Level New York Center
06:51AM 40.9939 -76.7478 274° West 168 193 6,600  Level New York Center
06:52AM 40.9950 -76.8083 271° West 168 193 6,700  Climbing New York Center
06:53AM 40.9961 -76.8689 271° West 168 193 6,600 -60 Descending New York Center
06:54AM 40.9969 -76.9294 271° West 168 193 6,600  Level New York Center
06:55AM 40.9983 -76.9847 272° West 162 186 6,600  Level New York Center
06:56AM 41.0014 -77.0428 274° West 162 186 6,600  Level New York Center
06:57AM 41.0025 -77.1006 271° West 162 186 6,600  Level New York Center
06:58AM 41.0039 -77.1556 272° West 162 186 6,600  Level New York Center
06:59AM 41.0047 -77.2136 271° West 162 186 6,600  Level New York Center
07:00AM 41.0081 -77.2717 274° West 162 186 6,600  Level New York Center
07:01AM 41.0089 -77.3322 271° West 162 186 6,600  Level New York Center
07:02AM 41.0114 -77.3983 273° West 162 186 6,600  Level New York Center
07:03AM 41.0122 -77.4592 271° West 162 186 6,600  Level New York Center
07:04AM 41.0131 -77.5169 271° West 162 186 6,600  Level New York Center
07:05AM 41.0158 -77.5778 273° West 162 186 6,600 -60 Level New York Center
07:07AM 41.0175 -77.7017 271° West 160 184 6,500 -60 Descending Cleveland Center
07:08AM 41.0183 -77.7606 271° West 161 185 6,500  Level Cleveland Center
07:09AM 41.0192 -77.8175 271° West 158 182 6,500  Level Cleveland Center
07:10AM 41.0200 -77.8742 271° West 157 181 6,500 -60 Level Cleveland Center
07:11AM 41.0214 -77.9292 272° West 153 176 6,400 -60 Descending Cleveland Center
07:12AM 41.0222 -77.9842 271° West 151 174 6,400  Level Cleveland Center
07:13AM 41.0233 -78.0406 272° West 152 175 6,400  Level Cleveland Center
07:14AM 41.0244 -78.1094 271° West 155 178 6,400  Level Cleveland Center
07:15AM 41.0256 -78.1642 272° West 152 175 6,400  Level Cleveland Center
07:16AM 41.0267 -78.2203 272° West 152 175 6,400 60 Level Cleveland Center
07:17AM 41.0275 -78.2758 271° West 152 175 6,600 60 Climbing Cleveland Center
07:18AM 41.0283 -78.3289 271° West 147 169 6,600  Level Cleveland Center
07:19AM 41.0297 -78.3861 272° West 152 175 6,600  Level Cleveland Center
07:20AM 41.0308 -78.4450 271° West 158 182 6,600  Level Cleveland Center
07:21AM 41.0311 -78.5039 270° West 159 183 6,600  Level Cleveland Center
07:22AM 41.0325 -78.5647 272° West 159 183 6,600  Level Cleveland Center
07:24AM 41.0333 -78.6233 271° West 158 182 6,600  Level Cleveland Center
07:25AM 41.0342 -78.6814 271° West 157 181 6,600  Level Cleveland Center
07:26AM 41.0344 -78.7397 270° West 158 182 6,600  Level Cleveland Center
07:27AM 41.0347 -78.7972 270° West 158 182 6,600  Level Cleveland Center
07:28AM 41.0358 -78.8633 271° West 153 176 6,600  Level Cleveland Center
07:29AM 41.0361 -78.9192 270° West 152 175 6,600 -120 Level Cleveland Center
07:30AM 41.0356 -78.9775 269° West 156 180 6,400 -240 Descending Cleveland Center
07:31AM 41.0369 -79.0372 272° West 161 185 6,200 -180 Descending Cleveland Center
07:32AM 41.0381 -79.0956 271° West 161 185 6,100 -60 Descending Cleveland Center
07:33AM 41.0389 -79.1514 271° West 157 181 6,100  Level Cleveland Center
07:34AM 41.0397 -79.2056 271° West 153 176 6,100  Level Cleveland Center
07:35AM 41.0392 -79.2633 269° West 153 176 6,100  Level Cleveland Center
07:36AM 41.0392 -79.3222 270° West 157 181 6,100  Level Cleveland Center
07:37AM 41.0406 -79.3914 272° West 157 181 6,100  Level Cleveland Center
07:38AM 41.0403 -79.4508 270° West 159 183 6,100  Level Cleveland Center
07:39AM 41.0406 -79.5103 270° West 161 185 6,100  Level Cleveland Center
07:40AM 41.0414 -79.5689 271° West 161 185 6,100  Level Cleveland Center
07:41AM 41.0417 -79.6289 270° West 162 186 6,100  Level Cleveland Center
07:42AM 41.0419 -79.6889 270° West 163 188 6,100  Level Cleveland Center
07:43AM 41.0419 -79.7475 270° West 161 185 6,100  Level Cleveland Center
07:44AM 41.0414 -79.8200 269° West 164 189 6,100  Level Cleveland Center
07:45AM 41.0417 -79.8797 270° West 163 188 6,100  Level Cleveland Center
07:46AM 41.0447 -79.9400 274° West 164 189 6,100  Level Cleveland Center
07:47AM 41.0481 -80.0011 274° West 166 191 6,100  Level Cleveland Center
07:48AM 41.0508 -80.0608 274° West 164 189 6,100  Level Cleveland Center
07:49AM 41.0544 -80.1208 275° West 164 189 6,100  Level Cleveland Center
07:50AM 41.0569 -80.1811 273° West 165 190 6,100  Level Cleveland Center
07:51AM 41.0600 -80.2428 274° West 167 192 6,100  Level Cleveland Center
07:52AM 41.0628 -80.3150 273° West 165 190 6,100  Level Cleveland Center
07:53AM 41.0672 -80.3769 275° West 167 192 6,100  Level Cleveland Center
07:54AM 41.0700 -80.4378 273° West 167 192 6,100  Level Cleveland Center
07:55AM 41.0728 -80.4989 273° West 167 192 6,100  Level Cleveland Center
07:56AM 41.0758 -80.5594 274° West 166 191 6,100  Level Cleveland Center
07:57AM 41.0792 -80.6203 274° West 166 191 6,100 -300 Level Cleveland Center
07:58AM 41.0817 -80.6847 273° West 172 198 5,600 -540 Descending Cleveland Center
07:59AM 41.0864 -80.7667 274° West 184 212 5,100 -540 Descending Cleveland Center
08:00AM 41.0883 -80.8353 272° West 187 215 4,600 -540 Descending Cleveland Center
08:01AM 41.0931 -80.9028 275° West 185 213 4,100 -300 Descending Cleveland Center
08:02AM 41.0950 -80.9683 272° West 181 208 4,100  Level Cleveland Center
08:03AM 41.0978 -81.0322 273° West 176 203 4,100 -120 Level Cleveland Center
08:04AM 41.1061 -81.1033 279° West 175 201 3,900 -480 Descending Cleveland Center
08:06AM 41.1119 -81.1725 276° West 182 209 3,200 -480 Descending Cleveland Center
08:07AM 41.1178 -81.2414 276° West 186 214 3,000 -120 Descending Cleveland Center
08:08AM 41.1147 -81.3042 266° West 176 203 3,000  Level Cleveland Center
08:09AM 41.0881 -81.3453 229° Southwest 168 193 3,000  Level Cleveland Center